Station: Edithburgh  

  Atmospheric Gas Attenuation - ITU Rec 676-11   ----------------- dB/100km -----------------
Date Time Temp RH % AH g/m3 Dew Point Wind Direction Speed kph Gust kph Barometer mB Rainfall Since 9am 24GHz 47GHz 76GHz 122GHz 134GHz 241GHz
05/05 22:40 13.8 88 10.49 11.8 7 7 1024.3 0 23.6 29.5 48.2 126.7 125.3 432.5
05/05 22:30 13.7 88 10.42 11.8 4 6 1024.3 0 23.5 29.4 48.0 126.1 124.5 429.6
05/05 22:20 13.8 88 10.49 11.8 6 6 1024.4 0 23.6 29.5 48.2 126.7 125.3 432.6
05/05 22:10 13.8 88 10.49 11.8 7 7 1024.4 0 23.6 29.5 48.2 126.7 125.3 432.6
05/05 22:00 13.9 88 10.55 11.9 6 7 1024.4 0 23.7 29.6 48.4 127.3 126.0 435.0
05/05 21:50 13.9 88 10.55 11.9 7 7 1024.5 0 23.7 29.6 48.4 127.3 126.0 435.0
05/05 21:40 13.9 86 10.31 11.7 6 6 1024.5 0 23.2 29.2 47.4 124.5 122.6 423.1
05/05 21:30 13.9 87 10.43 11.8 6 7 1024.4 0 23.5 29.4 47.9 125.9 124.3 429.0
05/05 21:20 14.1 86 10.44 11.8 6 6 1024.5 0 23.5 29.3 47.8 125.7 124.1 428.4
05/05 21:10 14.2 86 10.5 11.9 6 6 1024.4 0 23.6 29.4 48.0 126.2 124.8 430.8
05/05 21:00 14.3 85 10.44 11.8 4 6 1024.4 0 23.5 29.2 47.7 125.4 123.8 427.3
05/05 20:50 14.4 85 10.51 11.9 4 4 1024.5 0 23.6 29.3 47.9 126.0 124.6 430.2
05/05 20:40 14.4 85 10.51 11.9 2 2 1024.5 0 23.6 29.3 47.9 126.0 124.6 430.2
05/05 20:30 14.3 85 10.44 11.8 2 4 1024.5 0 23.5 29.3 47.7 125.4 123.8 427.3
05/05 20:20 14.4 85 10.51 11.9 6 6 1024.5 0 23.6 29.3 47.9 126.0 124.6 430.2
05/05 20:10 14.2 84 10.26 11.5 6 6 1024.6 0 23.1 29.0 47.0 123.5 121.5 419.1
05/05 20:00 14.2 84 10.26 11.5 4 6 1024.5 0 23.1 29.0 47.0 123.5 121.4 419.0
05/05 19:50 14.2 84 10.26 11.5 6 7 1024.4 0 23.1 29.0 47.0 123.5 121.4 419.0
05/05 19:40 14.2 84 10.26 11.5 6 6 1024.5 0 23.1 29.0 47.0 123.5 121.4 419.0
05/05 19:30 14.1 84 10.19 11.4 6 7 1024.5 0 23.0 28.9 46.7 122.8 120.6 416.1
05/05 19:20 14.1 83 10.07 11.2 7 7 1024.5 0 22.7 28.7 46.2 121.5 118.9 410.3
05/05 19:10 14 83 10.01 11.1 7 7 1024.4 0 22.6 28.6 46.0 120.9 118.3 407.8
05/05 19:00 13.9 83 9.95 11.1 7 7 1024.4 0 22.5 28.5 45.8 120.4 117.6 405.4
05/05 18:50 13.9 81 9.71 10.8 7 7 1024.3 0 21.9 28.1 44.8 117.7 114.2 393.8
05/05 18:40 13.9 81 9.71 10.8 7 7 1024.2 0 21.9 28.1 44.8 117.7 114.2 393.7
05/05 18:30 13.9 81 9.71 10.7 6 7 1024.1 0 21.9 28.1 44.8 117.7 114.2 393.7
05/05 18:20 14.1 78 9.47 10.3 2 2 1023.9 0 21.4 27.6 43.7 114.7 110.6 381.1
05/05 18:10 13.8 77 9.17 9.8 4 4 1023.8 0 20.8 27.2 42.6 111.8 106.9 368.2
05/05 18:00 13.9 75 8.99 9.5 4 6 1023.7 0 20.4 26.9 41.8 109.6 104.3 359.2
05/05 17:50 14.1 73 8.86 9.3 4 4 1023.6 0 20.1 26.6 41.2 107.9 102.3 352.2
05/05 17:40 14.4 73 9.02 9.6 4 4 1023.6 0 20.4 26.8 41.7 109.3 104.1 358.3
05/05 17:30 14.5 73 9.08 9.7 6 9 1023.5 0 20.6 26.9 41.8 109.8 104.7 360.6
05/05 17:20 15 71 9.1 9.8 7 7 1023.5 0 20.6 26.7 41.7 109.3 104.3 359.3
05/05 17:10 15.7 69 9.23 10 6 6 1023.4 0 20.8 26.7 41.8 109.7 105.1 362.1
05/05 17:00 16.1 67 9.18 10 7 11 1023.4 0 20.7 26.5 41.4 108.6 103.9 357.9
05/05 16:50 16.5 67 9.41 10.3 9 9 1023.3 0 21.2 26.8 42.1 110.5 106.4 366.7
05/05 16:40 16.5 66 9.27 10.1 6 9 1023.2 0 20.9 26.6 41.5 109.0 104.5 360.2
05/05 16:30 16.5 67 9.41 10.4 7 9 1023.3 0 21.2 26.8 42.1 110.5 106.4 366.7
05/05 16:20 16.5 67 9.41 10.3 7 9 1023.3 0 21.2 26.8 42.1 110.5 106.4 366.7
05/05 16:10 16.4 66 9.21 10 9 9 1023.3 0 20.7 26.5 41.4 108.5 103.9 357.9
05/05 16:00 16.5 66 9.27 10.1 9 13 1023.4 0 20.9 26.6 41.6 109.0 104.5 360.3
05/05 15:50 16.8 64 9.15 9.9 7 9 1023.3 0 20.6 26.3 40.9 107.3 102.6 353.4
05/05 15:40 16.8 64 9.15 10.1 6 7 1023.3 0 20.6 26.3 40.9 107.3 102.6 353.4
05/05 15:30 16.8 65 9.29 10.2 9 17 1023.2 0 20.9 26.5 41.5 108.8 104.4 359.7
05/05 15:20 16.9 66 9.49 10.5 11 11 1023.2 0 21.3 26.8 42.2 110.8 106.9 368.5
05/05 15:10 16.9 63 9.06 9.8 11 13 1023.1 0 20.4 26.1 40.5 106.2 101.3 348.8
05/05 15:00 17 62 8.97 9.7 11 13 1023.1 0 20.2 25.9 40.1 105.2 100.0 344.3
05/05 14:50 17.1 64 9.32 10.2 7 7 1023 0 20.9 26.4 41.4 108.7 104.4 359.7
05/05 14:40 17.4 65 9.63 10.7 7 11 1022.9 0 21.6 26.9 42.5 111.6 108.0 372.5
05/05 14:30 17 62 8.97 9.7 15 20 1022.9 0 20.2 25.9 40.1 105.1 99.9 344.2
05/05 14:20 17.5 62 9.24 10.1 13 15 1023 0 20.8 26.2 40.9 107.3 102.8 354.3
05/05 14:10 17.2 61 8.93 9.8 17 19 1023 0 20.1 25.8 39.8 104.5 99.2 341.6
05/05 14:00 17 61 8.83 9.4 17 22 1023.1 0 19.9 25.7 39.6 103.7 98.2 338.0
05/05 13:50 17.2 61 8.93 9.6 13 15 1023.1 0 20.1 25.8 39.8 104.5 99.2 341.6
05/05 13:40 17.4 59 8.74 9.3 15 19 1023.2 0 19.7 25.5 39.0 102.3 96.5 332.3
05/05 13:30 17.6 62 9.3 10.2 13 22 1023.2 0 20.9 26.3 41.1 107.8 103.5 356.6
05/05 13:20 16.9 64 9.2 10.2 11 15 1023.4 0 20.7 26.3 41.1 107.7 103.1 355.2
05/05 13:10 16.6 66 9.32 10.2 13 17 1023.5 0 21.0 26.6 41.7 109.4 105.1 362.1
05/05 13:00 16.6 68 9.61 10.7 9 15 1023.5 0 21.6 27.1 42.9 112.5 108.9 375.5
05/05 12:50 16.6 67 9.46 10.6 13 15 1023.6 0 21.3 26.8 42.3 110.9 106.9 368.6
05/05 12:40 16.8 71 10.15 11.5 9 13 1023.7 0 22.7 27.9 45.0 118.1 115.9 399.8
05/05 12:30 16.6 75 10.59 12.2 7 13 1023.8 0 23.7 28.7 46.9 123.3 122.2 421.8
05/05 12:20 15.4 81 10.64 12.1 11 15 1024.1 0 23.8 29.2 47.9 125.8 124.8 430.9
05/05 12:10 16.3 72 9.99 11.2 24 26 1024.2 0 22.4 27.8 44.6 117.2 114.5 395.0
05/05 12:00 16.6 71 10.03 11.3 9 15 1024.2 0 22.5 27.8 44.6 117.2 114.6 395.4
05/05 11:50 15.8 71 9.56 10.5 15 19 1024.3 0 21.5 27.3 43.1 113.2 109.4 377.3
05/05 11:40 16.5 70 9.83 11 19 20 1024.3 0 22.1 27.5 43.9 115.2 112.1 386.5
05/05 11:30 16.6 69 9.75 10.9 13 19 1024.2 0 21.9 27.3 43.5 114.1 110.8 382.2
05/05 11:20 16.4 67 9.35 10.4 15 19 1024.4 0 21.0 26.8 42.0 110.1 105.8 364.7
05/05 11:10 16.3 66 9.16 10.1 9 13 1024.3 0 20.6 26.5 41.3 108.2 103.4 356.4
05/05 11:00 16.2 68 9.38 10.3 15 24 1024.3 0 21.1 26.9 42.2 110.7 106.5 367.0
05/05 10:50 16.7 67 9.52 10.5 15 17 1024.2 0 21.4 26.9 42.5 111.5 107.6 371.1
05/05 10:40 16.6 63 8.9 9.7 19 20 1024 0 20.1 26.0 40.1 105.0 99.6 343.1
05/05 10:30 17.1 64 9.32 10.2 13 19 1024.1 0 20.9 26.5 41.5 108.8 104.5 360.0
05/05 10:20 16.9 63 9.06 9.8 11 13 1024 0 20.4 26.1 40.5 106.3 101.3 349.0
05/05 10:10 16.4 63 8.79 9.5 9 11 1023.9 0 19.9 25.8 39.7 104.1 98.5 338.9
05/05 10:00 16.4 65 9.07 9.8 11 15 1023.8 0 20.4 26.3 40.8 107.1 102.1 351.7
05/05 09:50 16.2 64 8.83 9.4 13 15 1023.7 0 19.9 26.0 40.0 104.8 99.2 341.6
05/05 09:40 16.2 62 8.55 8.9 11 13 1023.6 0 19.4 25.5 38.9 101.9 95.6 328.9
05/05 09:30 16.3 63 8.74 9.3 9 15 1023.6 0 19.8 25.8 39.6 103.7 97.9 337.0
05/05 09:20 16.1 62 8.5 9 9 11 1023.6 0 19.3 25.5 38.7 101.5 95.1 327.0
05/05 09:10 16.3 62 8.6 9 7 11 1023.5 0 19.5 25.6 39.0 102.2 96.1 330.7
05/05 09:00 15.8 63 8.48 8.8 6 9 1023.5 0 19.2 25.5 38.8 101.6 95.2 327.4
05/05 08:50 15.8 62 8.35 8.7 7 7 1023.4 0.4 19.0 25.3 38.3 100.3 93.5 321.5
05/05 08:40 15.1 64 8.26 8.5 6 7 1023.3 0.4 18.8 25.4 38.3 100.2 93.2 320.2
05/05 08:30 14.5 69 8.58 8.9 7 13 1023.3 0.4 19.5 26.0 39.8 104.4 98.1 337.3
05/05 08:20 14.3 66 8.11 8 11 13 1023.2 0.4 18.5 25.3 38.0 99.6 92.2 316.6
05/05 08:10 14.4 66 8.16 8.1 13 15 1023 0.4 18.6 25.4 38.2 100.0 92.7 318.4
05/05 08:00 14.4 66 8.16 8.1 11 20 1022.9 0.4 18.6 25.4 38.2 100.0 92.7 318.4
05/05 07:50 14.8 66 8.36 8.5 15 17 1022.8 0.4 19.0 25.6 38.8 101.6 94.8 325.9
05/05 07:40 13.9 73 8.75 9.1 7 9 1022.8 0.4 19.9 26.5 40.8 106.9 101.1 347.7
05/05 07:30 13.6 73 8.59 8.9 9 13 1022.7 0.4 19.6 26.3 40.3 105.6 99.3 341.5
05/05 07:20 12.7 73 8.13 8 9 9 1022.6 0.4 18.6 25.8 38.9 101.8 94.3 323.9
05/05 07:10 12.7 71 7.9 7.7 9 11 1022.5 0.4 18.1 25.4 37.9 99.3 91.3 313.2
05/05 07:00 12.4 72 7.87 7.5 9 15 1022.5 0.4 18.1 25.5 38.0 99.4 91.2 313.0
05/05 06:50 13 70 7.94 7.6 13 15 1022.4 0.4 18.2 25.4 38.0 99.4 91.4 313.8
05/05 06:40 13.3 69 7.97 7.7 9 11 1022.4 0.4 18.3 25.4 37.9 99.3 91.5 314.0
05/05 06:30 13.5 68 7.95 7.7 9 15 1022.3 0.4 18.2 25.3 37.8 98.9 91.0 312.3
05/05 06:20 13.5 69 8.07 7.9 15 19 1022.3 0.4 18.5 25.5 38.2 100.1 92.5 317.8
05/05 06:10 13.7 69 8.17 8.1 11 13 1022.2 0.4 18.7 25.6 38.5 100.9 93.6 321.5

Last Refresh: 05-May-2026 22:41:39

Bureau of Meteorology